sensor_id;sensor_type;location;lat;lon;timestamp;P1;durP1;ratioP1;P2;durP2;ratioP2
67747;SDS011;54543;50.712;6.070;2023-01-08T00:01:41;4.60;;;2.72;;
67747;SDS011;54543;50.712;6.070;2023-01-08T00:04:06;3.65;;;2.67;;
67747;SDS011;54543;50.712;6.070;2023-01-08T00:06:32;3.22;;;2.13;;
67747;SDS011;54543;50.712;6.070;2023-01-08T00:08:57;3.60;;;1.90;;
67747;SDS011;54543;50.712;6.070;2023-01-08T00:11:23;3.20;;;2.05;;
67747;SDS011;54543;50.712;6.070;2023-01-08T00:13:48;3.88;;;2.55;;
67747;SDS011;54543;50.712;6.070;2023-01-08T00:16:14;4.20;;;2.50;;
67747;SDS011;54543;50.712;6.070;2023-01-08T00:18:41;4.95;;;2.83;;
67747;SDS011;54543;50.712;6.070;2023-01-08T00:21:08;3.55;;;2.13;;
67747;SDS011;54543;50.712;6.070;2023-01-08T00:23:34;3.85;;;2.63;;
67747;SDS011;54543;50.712;6.070;2023-01-08T00:26:00;4.25;;;2.75;;
67747;SDS011;54543;50.712;6.070;2023-01-08T00:28:32;5.10;;;2.92;;
67747;SDS011;54543;50.712;6.070;2023-01-08T00:30:58;5.78;;;2.42;;
67747;SDS011;54543;50.712;6.070;2023-01-08T00:33:23;4.70;;;2.08;;
67747;SDS011;54543;50.712;6.070;2023-01-08T00:35:49;6.18;;;2.80;;
67747;SDS011;54543;50.712;6.070;2023-01-08T00:38:14;2.60;;;1.90;;
67747;SDS011;54543;50.712;6.070;2023-01-08T00:40:40;4.10;;;2.28;;
67747;SDS011;54543;50.712;6.070;2023-01-08T00:43:06;3.97;;;2.35;;
67747;SDS011;54543;50.712;6.070;2023-01-08T00:45:32;2.88;;;2.13;;
67747;SDS011;54543;50.712;6.070;2023-01-08T00:47:58;3.60;;;1.90;;
67747;SDS011;54543;50.712;6.070;2023-01-08T00:50:24;4.20;;;2.00;;
67747;SDS011;54543;50.712;6.070;2023-01-08T00:52:50;4.68;;;2.42;;
67747;SDS011;54543;50.712;6.070;2023-01-08T00:55:15;3.95;;;2.20;;
67747;SDS011;54543;50.712;6.070;2023-01-08T00:57:41;2.92;;;2.00;;
67747;SDS011;54543;50.712;6.070;2023-01-08T01:00:07;2.88;;;1.85;;
67747;SDS011;54543;50.712;6.070;2023-01-08T01:02:35;3.60;;;2.00;;
67747;SDS011;54543;50.712;6.070;2023-01-08T01:05:01;2.83;;;1.90;;
67747;SDS011;54543;50.712;6.070;2023-01-08T01:07:27;3.72;;;2.17;;
67747;SDS011;54543;50.712;6.070;2023-01-08T01:09:52;4.25;;;2.10;;
67747;SDS011;54543;50.712;6.070;2023-01-08T01:12:18;3.92;;;1.90;;
67747;SDS011;54543;50.712;6.070;2023-01-08T01:14:43;3.35;;;2.13;;
67747;SDS011;54543;50.712;6.070;2023-01-08T01:17:09;3.22;;;2.00;;
67747;SDS011;54543;50.712;6.070;2023-01-08T01:19:36;3.55;;;2.13;;
67747;SDS011;54543;50.712;6.070;2023-01-08T01:22:02;4.63;;;2.05;;
67747;SDS011;54543;50.712;6.070;2023-01-08T01:24:28;3.88;;;1.88;;
67747;SDS011;54543;50.712;6.070;2023-01-08T01:26:53;2.97;;;2.00;;
67747;SDS011;54543;50.712;6.070;2023-01-08T01:29:21;3.75;;;1.92;;
67747;SDS011;54543;50.712;6.070;2023-01-08T01:31:46;3.33;;;1.60;;
67747;SDS011;54543;50.712;6.070;2023-01-08T01:34:12;2.95;;;1.90;;
67747;SDS011;54543;50.712;6.070;2023-01-08T01:36:38;3.30;;;2.00;;
67747;SDS011;54543;50.712;6.070;2023-01-08T01:39:03;3.95;;;1.90;;
67747;SDS011;54543;50.712;6.070;2023-01-08T01:41:36;3.08;;;1.90;;
67747;SDS011;54543;50.712;6.070;2023-01-08T01:52:39;2.67;;;1.50;;
67747;SDS011;54543;50.712;6.070;2023-01-08T01:55:10;2.50;;;1.50;;
67747;SDS011;54543;50.712;6.070;2023-01-08T01:57:37;1.70;;;1.30;;
67747;SDS011;54543;50.712;6.070;2023-01-08T02:00:05;1.55;;;1.20;;
67747;SDS011;54543;50.712;6.070;2023-01-08T02:02:32;3.92;;;1.60;;
67747;SDS011;54543;50.712;6.070;2023-01-08T02:04:59;2.83;;;1.50;;
67747;SDS011;54543;50.712;6.070;2023-01-08T02:07:31;1.67;;;1.23;;
67747;SDS011;54543;50.712;6.070;2023-01-08T02:13:11;2.90;;;1.60;;
67747;SDS011;54543;50.712;6.070;2023-01-08T02:15:46;1.98;;;1.20;;
67747;SDS011;54543;50.712;6.070;2023-01-08T02:18:20;2.25;;;1.30;;
67747;SDS011;54543;50.712;6.070;2023-01-08T02:20:57;1.83;;;1.20;;
67747;SDS011;54543;50.712;6.070;2023-01-08T02:31:33;2.33;;;1.33;;
67747;SDS011;54543;50.712;6.070;2023-01-08T02:34:00;1.48;;;1.10;;
67747;SDS011;54543;50.712;6.070;2023-01-08T02:47:29;0.90;;;0.90;;
67747;SDS011;54543;50.712;6.070;2023-01-08T02:50:22;1.20;;;1.00;;
67747;SDS011;54543;50.712;6.070;2023-01-08T02:53:08;2.08;;;1.15;;
67747;SDS011;54543;50.712;6.070;2023-01-08T02:55:39;1.23;;;1.00;;
67747;SDS011;54543;50.712;6.070;2023-01-08T02:58:07;1.55;;;0.98;;
67747;SDS011;54543;50.712;6.070;2023-01-08T03:00:33;1.23;;;0.88;;
67747;SDS011;54543;50.712;6.070;2023-01-08T03:03:08;2.80;;;0.98;;
67747;SDS011;54543;50.712;6.070;2023-01-08T03:05:39;1.88;;;1.00;;
67747;SDS011;54543;50.712;6.070;2023-01-08T03:08:07;1.55;;;1.05;;
67747;SDS011;54543;50.712;6.070;2023-01-08T03:10:34;0.93;;;0.82;;
67747;SDS011;54543;50.712;6.070;2023-01-08T03:13:06;0.82;;;0.70;;
67747;SDS011;54543;50.712;6.070;2023-01-08T03:15:38;1.20;;;0.98;;
67747;SDS011;54543;50.712;6.070;2023-01-08T03:18:10;1.70;;;0.98;;
67747;SDS011;54543;50.712;6.070;2023-01-08T03:20:38;1.42;;;0.80;;
67747;SDS011;54543;50.712;6.070;2023-01-08T03:23:08;1.65;;;0.85;;
67747;SDS011;54543;50.712;6.070;2023-01-08T03:25:36;1.92;;;0.90;;
67747;SDS011;54543;50.712;6.070;2023-01-08T03:28:06;1.25;;;0.95;;
67747;SDS011;54543;50.712;6.070;2023-01-08T03:30:37;0.95;;;0.80;;
67747;SDS011;54543;50.712;6.070;2023-01-08T03:33:05;1.63;;;1.05;;
67747;SDS011;54543;50.712;6.070;2023-01-08T03:35:33;0.82;;;0.70;;
67747;SDS011;54543;50.712;6.070;2023-01-08T03:38:05;1.38;;;1.00;;
67747;SDS011;54543;50.712;6.070;2023-01-08T03:40:42;1.60;;;1.02;;
67747;SDS011;54543;50.712;6.070;2023-01-08T03:43:11;2.00;;;0.93;;
67747;SDS011;54543;50.712;6.070;2023-01-08T03:45:37;0.80;;;0.80;;
67747;SDS011;54543;50.712;6.070;2023-01-08T03:48:10;2.22;;;0.80;;
67747;SDS011;54543;50.712;6.070;2023-01-08T03:50:36;3.28;;;0.80;;
67747;SDS011;54543;50.712;6.070;2023-01-08T03:53:02;0.60;;;0.60;;
67747;SDS011;54543;50.712;6.070;2023-01-08T03:55:27;0.93;;;0.70;;
67747;SDS011;54543;50.712;6.070;2023-01-08T03:57:53;1.27;;;0.80;;
67747;SDS011;54543;50.712;6.070;2023-01-08T04:00:18;0.80;;;0.65;;
67747;SDS011;54543;50.712;6.070;2023-01-08T04:02:44;1.23;;;0.80;;
67747;SDS011;54543;50.712;6.070;2023-01-08T04:05:09;0.80;;;0.80;;
67747;SDS011;54543;50.712;6.070;2023-01-08T04:07:35;1.30;;;1.05;;
67747;SDS011;54543;50.712;6.070;2023-01-08T04:10:01;0.90;;;0.63;;
67747;SDS011;54543;50.712;6.070;2023-01-08T04:12:27;1.52;;;1.13;;
67747;SDS011;54543;50.712;6.070;2023-01-08T04:14:52;0.82;;;0.80;;
67747;SDS011;54543;50.712;6.070;2023-01-08T04:17:18;0.90;;;0.60;;
67747;SDS011;54543;50.712;6.070;2023-01-08T04:19:43;0.88;;;0.57;;
67747;SDS011;54543;50.712;6.070;2023-01-08T04:22:10;2.28;;;0.80;;
67747;SDS011;54543;50.712;6.070;2023-01-08T04:24:35;0.82;;;0.70;;
67747;SDS011;54543;50.712;6.070;2023-01-08T04:27:01;0.82;;;0.75;;
67747;SDS011;54543;50.712;6.070;2023-01-08T04:29:26;0.63;;;0.50;;
67747;SDS011;54543;50.712;6.070;2023-01-08T04:31:52;0.93;;;0.77;;
67747;SDS011;54543;50.712;6.070;2023-01-08T04:34:17;0.80;;;0.73;;
67747;SDS011;54543;50.712;6.070;2023-01-08T04:36:42;1.40;;;0.60;;
67747;SDS011;54543;50.712;6.070;2023-01-08T04:39:09;2.60;;;1.02;;
67747;SDS011;54543;50.712;6.070;2023-01-08T04:41:35;0.68;;;0.65;;
67747;SDS011;54543;50.712;6.070;2023-01-08T04:44:01;1.77;;;0.65;;
67747;SDS011;54543;50.712;6.070;2023-01-08T04:46:26;1.30;;;0.90;;
67747;SDS011;54543;50.712;6.070;2023-01-08T04:48:52;0.98;;;0.60;;
67747;SDS011;54543;50.712;6.070;2023-01-08T04:51:17;0.77;;;0.68;;
67747;SDS011;54543;50.712;6.070;2023-01-08T04:53:43;0.70;;;0.52;;
67747;SDS011;54543;50.712;6.070;2023-01-08T04:56:10;1.45;;;1.10;;
67747;SDS011;54543;50.712;6.070;2023-01-08T04:58:36;0.80;;;0.80;;
67747;SDS011;54543;50.712;6.070;2023-01-08T05:01:13;1.50;;;1.00;;
67747;SDS011;54543;50.712;6.070;2023-01-08T05:03:46;1.63;;;1.23;;
67747;SDS011;54543;50.712;6.070;2023-01-08T05:06:11;1.80;;;0.90;;
67747;SDS011;54543;50.712;6.070;2023-01-08T05:08:37;4.03;;;1.15;;
67747;SDS011;54543;50.712;6.070;2023-01-08T05:11:02;1.85;;;0.90;;
67747;SDS011;54543;50.712;6.070;2023-01-08T05:13:28;1.60;;;0.88;;
67747;SDS011;54543;50.712;6.070;2023-01-08T05:15:57;1.02;;;0.90;;
67747;SDS011;54543;50.712;6.070;2023-01-08T05:18:24;1.80;;;0.82;;
67747;SDS011;54543;50.712;6.070;2023-01-08T05:20:49;2.90;;;1.00;;
67747;SDS011;54543;50.712;6.070;2023-01-08T05:23:15;1.65;;;1.00;;
67747;SDS011;54543;50.712;6.070;2023-01-08T05:25:40;1.60;;;0.75;;
67747;SDS011;54543;50.712;6.070;2023-01-08T05:28:06;1.60;;;0.93;;
67747;SDS011;54543;50.712;6.070;2023-01-08T05:30:31;2.45;;;1.00;;
67747;SDS011;54543;50.712;6.070;2023-01-08T05:32:57;2.53;;;1.30;;
67747;SDS011;54543;50.712;6.070;2023-01-08T05:35:22;3.35;;;0.95;;
67747;SDS011;54543;50.712;6.070;2023-01-08T05:37:47;1.48;;;1.10;;
67747;SDS011;54543;50.712;6.070;2023-01-08T05:40:13;2.40;;;1.00;;
67747;SDS011;54543;50.712;6.070;2023-01-08T05:42:38;2.47;;;1.15;;
67747;SDS011;54543;50.712;6.070;2023-01-08T05:45:04;1.55;;;1.02;;
67747;SDS011;54543;50.712;6.070;2023-01-08T05:47:31;2.88;;;1.02;;
67747;SDS011;54543;50.712;6.070;2023-01-08T05:49:57;1.98;;;1.00;;
67747;SDS011;54543;50.712;6.070;2023-01-08T05:52:23;2.13;;;1.17;;
67747;SDS011;54543;50.712;6.070;2023-01-08T05:54:49;2.95;;;1.10;;
67747;SDS011;54543;50.712;6.070;2023-01-08T05:57:14;1.45;;;0.98;;
67747;SDS011;54543;50.712;6.070;2023-01-08T05:59:40;2.28;;;1.27;;
67747;SDS011;54543;50.712;6.070;2023-01-08T06:02:06;4.53;;;1.08;;
67747;SDS011;54543;50.712;6.070;2023-01-08T06:04:32;2.78;;;1.13;;
67747;SDS011;54543;50.712;6.070;2023-01-08T06:06:57;1.67;;;0.90;;
67747;SDS011;54543;50.712;6.070;2023-01-08T06:09:23;4.25;;;1.15;;
67747;SDS011;54543;50.712;6.070;2023-01-08T06:11:48;2.10;;;1.00;;
67747;SDS011;54543;50.712;6.070;2023-01-08T06:14:14;2.88;;;1.35;;
67747;SDS011;54543;50.712;6.070;2023-01-08T06:16:42;3.05;;;1.52;;
67747;SDS011;54543;50.712;6.070;2023-01-08T06:19:08;3.97;;;1.33;;
67747;SDS011;54543;50.712;6.070;2023-01-08T06:21:34;3.53;;;1.27;;
67747;SDS011;54543;50.712;6.070;2023-01-08T06:24:00;3.22;;;1.17;;
67747;SDS011;54543;50.712;6.070;2023-01-08T06:26:26;1.77;;;1.17;;
67747;SDS011;54543;50.712;6.070;2023-01-08T06:28:51;2.42;;;0.90;;
67747;SDS011;54543;50.712;6.070;2023-01-08T06:31:17;3.75;;;1.35;;
67747;SDS011;54543;50.712;6.070;2023-01-08T06:33:42;2.72;;;1.45;;
67747;SDS011;54543;50.712;6.070;2023-01-08T06:36:08;3.33;;;1.73;;
67747;SDS011;54543;50.712;6.070;2023-01-08T06:38:35;2.70;;;1.58;;
67747;SDS011;54543;50.712;6.070;2023-01-08T06:41:02;3.90;;;1.40;;
67747;SDS011;54543;50.712;6.070;2023-01-08T06:43:29;3.58;;;1.55;;
67747;SDS011;54543;50.712;6.070;2023-01-08T06:45:54;11.85;;;3.50;;
67747;SDS011;54543;50.712;6.070;2023-01-08T06:48:22;4.47;;;1.88;;
67747;SDS011;54543;50.712;6.070;2023-01-08T06:50:48;7.93;;;2.30;;
67747;SDS011;54543;50.712;6.070;2023-01-08T06:53:14;3.15;;;1.88;;
67747;SDS011;54543;50.712;6.070;2023-01-08T06:55:39;6.22;;;1.60;;
67747;SDS011;54543;50.712;6.070;2023-01-08T06:58:05;2.80;;;1.05;;
67747;SDS011;54543;50.712;6.070;2023-01-08T07:00:30;2.75;;;1.50;;
67747;SDS011;54543;50.712;6.070;2023-01-08T07:02:56;7.20;;;2.30;;
67747;SDS011;54543;50.712;6.070;2023-01-08T07:05:21;4.38;;;1.77;;
67747;SDS011;54543;50.712;6.070;2023-01-08T07:07:47;6.50;;;1.27;;
67747;SDS011;54543;50.712;6.070;2023-01-08T07:10:13;4.78;;;1.02;;
67747;SDS011;54543;50.712;6.070;2023-01-08T07:12:39;4.78;;;1.80;;
67747;SDS011;54543;50.712;6.070;2023-01-08T07:15:05;7.97;;;1.83;;
67747;SDS011;54543;50.712;6.070;2023-01-08T07:17:31;3.25;;;1.50;;
67747;SDS011;54543;50.712;6.070;2023-01-08T07:19:57;5.47;;;2.00;;
67747;SDS011;54543;50.712;6.070;2023-01-08T07:22:22;4.05;;;1.40;;
67747;SDS011;54543;50.712;6.070;2023-01-08T07:24:50;5.65;;;2.08;;
67747;SDS011;54543;50.712;6.070;2023-01-08T07:27:16;4.80;;;1.80;;
67747;SDS011;54543;50.712;6.070;2023-01-08T07:29:42;6.85;;;1.73;;
67747;SDS011;54543;50.712;6.070;2023-01-08T07:32:07;7.05;;;2.50;;
67747;SDS011;54543;50.712;6.070;2023-01-08T07:34:32;4.38;;;2.15;;
67747;SDS011;54543;50.712;6.070;2023-01-08T07:36:59;5.47;;;1.50;;
67747;SDS011;54543;50.712;6.070;2023-01-08T07:39:25;2.05;;;1.08;;
67747;SDS011;54543;50.712;6.070;2023-01-08T07:41:50;5.53;;;1.30;;
67747;SDS011;54543;50.712;6.070;2023-01-08T07:44:16;3.25;;;1.10;;
67747;SDS011;54543;50.712;6.070;2023-01-08T07:46:41;2.20;;;1.05;;
67747;SDS011;54543;50.712;6.070;2023-01-08T07:49:07;5.70;;;2.38;;
67747;SDS011;54543;50.712;6.070;2023-01-08T07:51:33;3.35;;;1.10;;
67747;SDS011;54543;50.712;6.070;2023-01-08T07:53:58;3.72;;;1.20;;
67747;SDS011;54543;50.712;6.070;2023-01-08T07:56:25;4.70;;;2.10;;
67747;SDS011;54543;50.712;6.070;2023-01-08T07:58:50;7.43;;;2.08;;
67747;SDS011;54543;50.712;6.070;2023-01-08T08:01:16;7.30;;;2.75;;
67747;SDS011;54543;50.712;6.070;2023-01-08T08:03:42;11.35;;;4.68;;
67747;SDS011;54543;50.712;6.070;2023-01-08T08:06:07;6.80;;;3.15;;
67747;SDS011;54543;50.712;6.070;2023-01-08T08:08:33;10.45;;;3.03;;
67747;SDS011;54543;50.712;6.070;2023-01-08T08:10:59;7.13;;;3.30;;
67747;SDS011;54543;50.712;6.070;2023-01-08T08:13:25;4.80;;;1.75;;
67747;SDS011;54543;50.712;6.070;2023-01-08T08:15:51;6.40;;;2.15;;
67747;SDS011;54543;50.712;6.070;2023-01-08T08:18:17;5.60;;;2.80;;
67747;SDS011;54543;50.712;6.070;2023-01-08T08:20:42;5.05;;;2.55;;
67747;SDS011;54543;50.712;6.070;2023-01-08T08:23:09;7.40;;;1.85;;
67747;SDS011;54543;50.712;6.070;2023-01-08T08:25:40;3.20;;;1.30;;
67747;SDS011;54543;50.712;6.070;2023-01-08T08:28:06;1.65;;;0.90;;
67747;SDS011;54543;50.712;6.070;2023-01-08T08:30:33;3.90;;;1.50;;
67747;SDS011;54543;50.712;6.070;2023-01-08T08:33:00;3.05;;;1.17;;
67747;SDS011;54543;50.712;6.070;2023-01-08T08:35:28;1.00;;;0.80;;
67747;SDS011;54543;50.712;6.070;2023-01-08T08:37:55;7.05;;;2.88;;
67747;SDS011;54543;50.712;6.070;2023-01-08T08:40:21;7.07;;;2.67;;
67747;SDS011;54543;50.712;6.070;2023-01-08T08:42:47;6.03;;;2.35;;
67747;SDS011;54543;50.712;6.070;2023-01-08T08:45:12;3.03;;;1.40;;
67747;SDS011;54543;50.712;6.070;2023-01-08T08:47:38;3.75;;;1.63;;
67747;SDS011;54543;50.712;6.070;2023-01-08T08:50:04;5.53;;;2.22;;
67747;SDS011;54543;50.712;6.070;2023-01-08T08:52:32;10.30;;;4.53;;
67747;SDS011;54543;50.712;6.070;2023-01-08T08:54:58;6.97;;;3.42;;
67747;SDS011;54543;50.712;6.070;2023-01-08T08:57:24;3.72;;;2.08;;
67747;SDS011;54543;50.712;6.070;2023-01-08T08:59:51;8.88;;;3.72;;
67747;SDS011;54543;50.712;6.070;2023-01-08T09:02:16;14.90;;;7.97;;
67747;SDS011;54543;50.712;6.070;2023-01-08T09:04:42;11.88;;;6.55;;
67747;SDS011;54543;50.712;6.070;2023-01-08T09:07:07;8.32;;;4.75;;
67747;SDS011;54543;50.712;6.070;2023-01-08T09:09:33;7.57;;;4.57;;
67747;SDS011;54543;50.712;6.070;2023-01-08T09:11:58;6.18;;;3.00;;
67747;SDS011;54543;50.712;6.070;2023-01-08T09:14:25;7.68;;;4.35;;
67747;SDS011;54543;50.712;6.070;2023-01-08T09:16:50;11.38;;;5.90;;
67747;SDS011;54543;50.712;6.070;2023-01-08T09:19:16;4.53;;;2.80;;
67747;SDS011;54543;50.712;6.070;2023-01-08T09:21:41;10.93;;;4.72;;
67747;SDS011;54543;50.712;6.070;2023-01-08T09:24:07;6.65;;;3.95;;
67747;SDS011;54543;50.712;6.070;2023-01-08T09:26:33;8.88;;;4.57;;
67747;SDS011;54543;50.712;6.070;2023-01-08T09:28:58;7.13;;;3.10;;
67747;SDS011;54543;50.712;6.070;2023-01-08T09:31:24;5.18;;;2.75;;
67747;SDS011;54543;50.712;6.070;2023-01-08T09:33:51;5.28;;;2.95;;
67747;SDS011;54543;50.712;6.070;2023-01-08T09:36:17;8.88;;;2.80;;
67747;SDS011;54543;50.712;6.070;2023-01-08T09:38:43;4.55;;;2.20;;
67747;SDS011;54543;50.712;6.070;2023-01-08T09:41:10;8.10;;;2.85;;
67747;SDS011;54543;50.712;6.070;2023-01-08T09:43:41;5.03;;;2.03;;
67747;SDS011;54543;50.712;6.070;2023-01-08T09:46:09;2.75;;;1.67;;
67747;SDS011;54543;50.712;6.070;2023-01-08T09:48:36;8.30;;;3.15;;
67747;SDS011;54543;50.712;6.070;2023-01-08T09:51:04;5.05;;;2.47;;
67747;SDS011;54543;50.712;6.070;2023-01-08T09:56:15;7.63;;;3.25;;
67747;SDS011;54543;50.712;6.070;2023-01-08T09:58:54;8.93;;;3.28;;
67747;SDS011;54543;50.712;6.070;2023-01-08T10:01:27;7.10;;;3.13;;
67747;SDS011;54543;50.712;6.070;2023-01-08T10:03:56;8.45;;;3.78;;
67747;SDS011;54543;50.712;6.070;2023-01-08T10:06:28;5.88;;;2.75;;
67747;SDS011;54543;50.712;6.070;2023-01-08T10:08:55;5.25;;;2.70;;
67747;SDS011;54543;50.712;6.070;2023-01-08T10:11:20;9.95;;;7.65;;
67747;SDS011;54543;50.712;6.070;2023-01-08T10:13:51;7.50;;;4.78;;
67747;SDS011;54543;50.712;6.070;2023-01-08T10:16:27;8.07;;;4.20;;
67747;SDS011;54543;50.712;6.070;2023-01-08T10:18:55;5.10;;;2.80;;
67747;SDS011;54543;50.712;6.070;2023-01-08T10:21:23;5.18;;;2.80;;
67747;SDS011;54543;50.712;6.070;2023-01-08T10:23:57;7.97;;;3.37;;
67747;SDS011;54543;50.712;6.070;2023-01-08T10:26:32;4.28;;;2.00;;
67747;SDS011;54543;50.712;6.070;2023-01-08T10:29:11;4.25;;;2.20;;
67747;SDS011;54543;50.712;6.070;2023-01-08T10:37:15;3.88;;;2.10;;
67747;SDS011;54543;50.712;6.070;2023-01-08T10:39:45;3.83;;;1.90;;
67747;SDS011;54543;50.712;6.070;2023-01-08T10:42:12;4.22;;;2.30;;
67747;SDS011;54543;50.712;6.070;2023-01-08T10:44:44;2.63;;;1.70;;
67747;SDS011;54543;50.712;6.070;2023-01-08T10:47:16;3.95;;;2.10;;
67747;SDS011;54543;50.712;6.070;2023-01-08T10:49:42;4.45;;;2.00;;
67747;SDS011;54543;50.712;6.070;2023-01-08T10:52:26;3.97;;;2.20;;
67747;SDS011;54543;50.712;6.070;2023-01-08T10:54:52;4.38;;;1.80;;
67747;SDS011;54543;50.712;6.070;2023-01-08T10:57:25;4.05;;;2.35;;
67747;SDS011;54543;50.712;6.070;2023-01-08T10:59:52;3.22;;;1.65;;
67747;SDS011;54543;50.712;6.070;2023-01-08T11:02:29;3.90;;;2.20;;
67747;SDS011;54543;50.712;6.070;2023-01-08T11:04:58;6.38;;;3.10;;
67747;SDS011;54543;50.712;6.070;2023-01-08T11:07:25;3.03;;;2.63;;
67747;SDS011;54543;50.712;6.070;2023-01-08T11:09:52;4.63;;;2.60;;
67747;SDS011;54543;50.712;6.070;2023-01-08T11:12:27;3.72;;;1.50;;
67747;SDS011;54543;50.712;6.070;2023-01-08T11:14:55;2.67;;;1.77;;
67747;SDS011;54543;50.712;6.070;2023-01-08T11:17:23;2.80;;;1.60;;
67747;SDS011;54543;50.712;6.070;2023-01-08T11:19:49;4.03;;;2.33;;
67747;SDS011;54543;50.712;6.070;2023-01-08T11:22:24;2.13;;;1.58;;
67747;SDS011;54543;50.712;6.070;2023-01-08T11:24:51;3.08;;;1.40;;
67747;SDS011;54543;50.712;6.070;2023-01-08T11:27:22;2.72;;;1.40;;
67747;SDS011;54543;50.712;6.070;2023-01-08T11:30:05;2.70;;;1.70;;
67747;SDS011;54543;50.712;6.070;2023-01-08T11:35:45;4.22;;;2.28;;
67747;SDS011;54543;50.712;6.070;2023-01-08T11:38:14;6.95;;;3.67;;
67747;SDS011;54543;50.712;6.070;2023-01-08T11:40:45;4.82;;;2.72;;
67747;SDS011;54543;50.712;6.070;2023-01-08T11:51:34;4.65;;;2.33;;
67747;SDS011;54543;50.712;6.070;2023-01-08T11:54:23;5.45;;;2.60;;
67747;SDS011;54543;50.712;6.070;2023-01-08T12:00:02;4.43;;;2.13;;
67747;SDS011;54543;50.712;6.070;2023-01-08T12:11:02;5.47;;;3.05;;
67747;SDS011;54543;50.712;6.070;2023-01-08T12:30:25;5.80;;;2.88;;
67747;SDS011;54543;50.712;6.070;2023-01-08T12:33:03;4.80;;;2.85;;
67747;SDS011;54543;50.712;6.070;2023-01-08T12:35:40;2.85;;;1.63;;
67747;SDS011;54543;50.712;6.070;2023-01-08T12:41:08;4.47;;;2.35;;
67747;SDS011;54543;50.712;6.070;2023-01-08T12:46:13;1.30;;;0.90;;
67747;SDS011;54543;50.712;6.070;2023-01-08T12:48:42;4.22;;;1.50;;
67747;SDS011;54543;50.712;6.070;2023-01-08T12:51:25;2.38;;;1.08;;
67747;SDS011;54543;50.712;6.070;2023-01-08T12:53:54;5.38;;;2.08;;
67747;SDS011;54543;50.712;6.070;2023-01-08T12:59:29;21.88;;;13.48;;
67747;SDS011;54543;50.712;6.070;2023-01-08T13:07:45;9.27;;;6.97;;
67747;SDS011;54543;50.712;6.070;2023-01-08T13:13:04;8.57;;;6.22;;
67747;SDS011;54543;50.712;6.070;2023-01-08T13:15:31;6.18;;;3.97;;
67747;SDS011;54543;50.712;6.070;2023-01-08T13:18:16;4.00;;;2.03;;
67747;SDS011;54543;50.712;6.070;2023-01-08T13:23:22;2.13;;;1.60;;
67747;SDS011;54543;50.712;6.070;2023-01-08T13:25:50;6.97;;;4.47;;
67747;SDS011;54543;50.712;6.070;2023-01-08T13:30:48;3.85;;;2.38;;
67747;SDS011;54543;50.712;6.070;2023-01-08T13:33:22;4.93;;;2.05;;
67747;SDS011;54543;50.712;6.070;2023-01-08T13:36:14;2.38;;;1.50;;
67747;SDS011;54543;50.712;6.070;2023-01-08T13:39:19;1.70;;;1.13;;
67747;SDS011;54543;50.712;6.070;2023-01-08T13:44:32;2.60;;;1.50;;
67747;SDS011;54543;50.712;6.070;2023-01-08T13:47:05;2.00;;;1.17;;
67747;SDS011;54543;50.712;6.070;2023-01-08T13:49:43;1.73;;;1.10;;
67747;SDS011;54543;50.712;6.070;2023-01-08T13:54:54;4.07;;;1.35;;
67747;SDS011;54543;50.712;6.070;2023-01-08T13:57:20;3.10;;;1.60;;
67747;SDS011;54543;50.712;6.070;2023-01-08T14:04:51;4.45;;;2.88;;
67747;SDS011;54543;50.712;6.070;2023-01-08T14:07:16;3.95;;;1.88;;
67747;SDS011;54543;50.712;6.070;2023-01-08T14:09:43;4.03;;;1.92;;
67747;SDS011;54543;50.712;6.070;2023-01-08T14:12:12;3.65;;;2.30;;
67747;SDS011;54543;50.712;6.070;2023-01-08T14:14:42;3.92;;;1.73;;
67747;SDS011;54543;50.712;6.070;2023-01-08T14:17:14;3.83;;;1.70;;
67747;SDS011;54543;50.712;6.070;2023-01-08T14:19:41;3.38;;;2.10;;
67747;SDS011;54543;50.712;6.070;2023-01-08T14:22:09;2.90;;;1.50;;
67747;SDS011;54543;50.712;6.070;2023-01-08T14:24:41;1.95;;;1.23;;
67747;SDS011;54543;50.712;6.070;2023-01-08T14:27:17;2.95;;;1.58;;
67747;SDS011;54543;50.712;6.070;2023-01-08T14:29:53;2.80;;;1.37;;
67747;SDS011;54543;50.712;6.070;2023-01-08T14:32:20;1.55;;;1.10;;
67747;SDS011;54543;50.712;6.070;2023-01-08T14:34:49;2.63;;;1.38;;
67747;SDS011;54543;50.712;6.070;2023-01-08T14:37:16;4.28;;;1.63;;
67747;SDS011;54543;50.712;6.070;2023-01-08T14:39:43;3.17;;;1.60;;
67747;SDS011;54543;50.712;6.070;2023-01-08T14:42:20;3.40;;;1.70;;
67747;SDS011;54543;50.712;6.070;2023-01-08T14:48:07;1.70;;;1.02;;
67747;SDS011;54543;50.712;6.070;2023-01-08T14:50:34;1.40;;;1.08;;
67747;SDS011;54543;50.712;6.070;2023-01-08T14:53:04;3.03;;;1.45;;
67747;SDS011;54543;50.712;6.070;2023-01-08T14:55:41;3.45;;;1.80;;
67747;SDS011;54543;50.712;6.070;2023-01-08T14:58:11;4.75;;;2.53;;
67747;SDS011;54543;50.712;6.070;2023-01-08T15:00:40;3.65;;;1.75;;
67747;SDS011;54543;50.712;6.070;2023-01-08T15:03:06;3.67;;;2.10;;
67747;SDS011;54543;50.712;6.070;2023-01-08T15:06:00;5.40;;;2.22;;
67747;SDS011;54543;50.712;6.070;2023-01-08T15:08:26;3.35;;;1.70;;
67747;SDS011;54543;50.712;6.070;2023-01-08T15:10:59;2.47;;;1.40;;
67747;SDS011;54543;50.712;6.070;2023-01-08T15:13:35;5.18;;;1.90;;
67747;SDS011;54543;50.712;6.070;2023-01-08T15:16:07;5.10;;;2.65;;
67747;SDS011;54543;50.712;6.070;2023-01-08T15:18:40;3.10;;;2.30;;
67747;SDS011;54543;50.712;6.070;2023-01-08T15:21:15;6.18;;;3.22;;
67747;SDS011;54543;50.712;6.070;2023-01-08T15:23:44;6.30;;;3.58;;
67747;SDS011;54543;50.712;6.070;2023-01-08T15:26:12;3.78;;;2.35;;
67747;SDS011;54543;50.712;6.070;2023-01-08T15:31:22;5.65;;;2.28;;
67747;SDS011;54543;50.712;6.070;2023-01-08T15:34:09;3.53;;;2.10;;
67747;SDS011;54543;50.712;6.070;2023-01-08T15:36:34;5.80;;;2.67;;
67747;SDS011;54543;50.712;6.070;2023-01-08T15:39:00;5.70;;;2.35;;
67747;SDS011;54543;50.712;6.070;2023-01-08T15:41:33;4.07;;;1.70;;
67747;SDS011;54543;50.712;6.070;2023-01-08T15:44:21;5.28;;;1.63;;
67747;SDS011;54543;50.712;6.070;2023-01-08T15:46:47;5.30;;;2.28;;
67747;SDS011;54543;50.712;6.070;2023-01-08T15:49:12;4.13;;;1.70;;
67747;SDS011;54543;50.712;6.070;2023-01-08T15:51:40;19.08;;;8.25;;
67747;SDS011;54543;50.712;6.070;2023-01-08T15:54:13;26.10;;;13.98;;
67747;SDS011;54543;50.712;6.070;2023-01-08T15:56:38;13.40;;;7.55;;
67747;SDS011;54543;50.712;6.070;2023-01-08T15:59:05;11.10;;;5.30;;
67747;SDS011;54543;50.712;6.070;2023-01-08T16:01:30;6.95;;;4.10;;
67747;SDS011;54543;50.712;6.070;2023-01-08T16:03:57;7.13;;;3.60;;
67747;SDS011;54543;50.712;6.070;2023-01-08T16:06:22;4.97;;;2.65;;
67747;SDS011;54543;50.712;6.070;2023-01-08T16:08:48;3.55;;;1.92;;
67747;SDS011;54543;50.712;6.070;2023-01-08T16:11:17;4.00;;;1.90;;
67747;SDS011;54543;50.712;6.070;2023-01-08T16:13:43;5.45;;;2.20;;
67747;SDS011;54543;50.712;6.070;2023-01-08T16:16:12;9.57;;;4.50;;
67747;SDS011;54543;50.712;6.070;2023-01-08T16:18:39;4.05;;;2.17;;
67747;SDS011;54543;50.712;6.070;2023-01-08T16:21:05;3.05;;;1.90;;
67747;SDS011;54543;50.712;6.070;2023-01-08T16:23:32;4.47;;;1.90;;
67747;SDS011;54543;50.712;6.070;2023-01-08T16:26:03;3.45;;;1.80;;
67747;SDS011;54543;50.712;6.070;2023-01-08T16:28:33;4.32;;;2.50;;
67747;SDS011;54543;50.712;6.070;2023-01-08T16:30:59;3.60;;;1.83;;
67747;SDS011;54543;50.712;6.070;2023-01-08T16:33:25;5.47;;;2.70;;
67747;SDS011;54543;50.712;6.070;2023-01-08T16:35:57;3.67;;;2.10;;
67747;SDS011;54543;50.712;6.070;2023-01-08T16:38:27;3.35;;;1.60;;
67747;SDS011;54543;50.712;6.070;2023-01-08T16:40:53;4.32;;;1.67;;
67747;SDS011;54543;50.712;6.070;2023-01-08T16:43:23;2.90;;;1.52;;
67747;SDS011;54543;50.712;6.070;2023-01-08T16:45:50;2.05;;;1.33;;
67747;SDS011;54543;50.712;6.070;2023-01-08T16:48:16;2.53;;;1.40;;
67747;SDS011;54543;50.712;6.070;2023-01-08T16:50:42;3.80;;;2.00;;
67747;SDS011;54543;50.712;6.070;2023-01-08T16:53:08;5.15;;;2.67;;